Time,TemperatureF,DewpointF,PressureIn,WindDirection,WindDirectionDegrees,WindSpeedMPH,WindSpeedGustMPH,Humidity,HourlyPrecipIn,Conditions,Clouds,dailyrainin,SoftwareType,DateUTC
2013-03-17 00:02:00,35.0,7.0,-100.00,West,264,14.0,21.0,31,0.00,,,-99.99,,2013-03-17 06:02:00,
2013-03-17 00:12:00,35.0,7.0,-100.00,WSW,256,16.0,24.0,31,0.00,,,-99.99,,2013-03-17 06:12:00,
2013-03-17 00:22:00,34.0,7.0,-100.00,WSW,247,16.0,23.0,31,0.00,,,-99.99,,2013-03-17 06:22:00,
2013-03-17 00:32:00,34.0,7.0,-100.00,WSW,247,13.0,19.0,32,0.00,,,-99.99,,2013-03-17 06:32:00,
2013-03-17 00:42:00,34.0,7.0,-100.00,WSW,248,15.0,22.0,31,0.00,,,-99.99,,2013-03-17 06:42:00,
2013-03-17 00:52:00,33.0,7.0,-100.00,WSW,248,14.0,24.0,33,0.00,,,-99.99,,2013-03-17 06:52:00,
2013-03-17 01:02:00,34.0,7.0,-100.00,WSW,251,15.0,21.0,31,0.00,,,-99.99,,2013-03-17 07:02:00,
2013-03-17 01:12:00,34.0,6.0,-100.00,WSW,251,16.0,22.0,31,0.00,,,-99.99,,2013-03-17 07:12:00,
2013-03-17 01:22:00,34.0,6.0,-100.00,WSW,254,18.0,24.0,31,0.00,,,-99.99,,2013-03-17 07:22:00,
2013-03-17 01:32:00,34.0,7.0,-100.00,WSW,254,17.0,24.0,32,0.00,,,-99.99,,2013-03-17 07:32:00,
2013-03-17 01:42:00,34.0,9.0,-100.00,WSW,256,19.0,27.0,34,0.00,,,-99.99,,2013-03-17 07:42:00,
2013-03-17 01:52:00,34.0,8.0,-100.00,WSW,256,20.0,27.0,34,0.00,,,-99.99,,2013-03-17 07:52:00,
2013-03-17 02:02:00,34.0,9.0,-100.00,West,260,18.0,26.0,34,0.00,,,-99.99,,2013-03-17 08:02:00,
2013-03-17 02:12:00,34.0,9.0,-100.00,West,267,19.0,26.0,35,0.00,,,-99.99,,2013-03-17 08:12:00,
2013-03-17 02:22:00,34.0,10.0,-100.00,West,267,16.0,26.0,36,0.00,,,-99.99,,2013-03-17 08:22:00,
2013-03-17 02:32:00,34.0,10.0,-100.00,West,271,15.0,22.0,37,0.00,,,-99.99,,2013-03-17 08:32:00,
2013-03-17 02:52:00,34.0,10.0,-100.00,West,271,16.0,22.0,36,0.00,,,-99.99,,2013-03-17 08:52:00,
2013-03-17 03:02:00,33.0,10.0,-100.00,West,267,15.0,28.0,38,0.00,,,-99.99,,2013-03-17 09:02:00,
2013-03-17 03:12:00,34.0,10.0,-100.00,West,265,16.0,28.0,37,0.00,,,-99.99,,2013-03-17 09:12:00,
2013-03-17 03:22:00,34.0,11.0,-100.00,West,270,17.0,26.0,38,0.00,,,-99.99,,2013-03-17 09:22:00,
2013-03-17 03:32:00,34.0,11.0,-100.00,West,272,17.0,27.0,39,0.00,,,-99.99,,2013-03-17 09:32:00,
2013-03-17 03:42:00,33.0,11.0,-100.00,West,268,17.0,26.0,38,0.00,,,-99.99,,2013-03-17 09:42:00,
2013-03-17 03:53:00,34.0,9.0,-100.00,West,264,20.0,29.0,35,0.00,,,-99.99,,2013-03-17 09:53:00,
2013-03-17 04:03:00,34.0,8.0,-100.00,West,264,19.0,27.0,34,0.00,,,-99.99,,2013-03-17 10:03:00,
2013-03-17 04:13:00,34.0,8.0,-100.00,West,264,17.0,24.0,33,0.00,,,-99.99,,2013-03-17 10:13:00,
2013-03-17 04:23:00,34.0,7.0,-100.00,West,261,15.0,21.0,32,0.00,,,-99.99,,2013-03-17 10:23:00,
2013-03-17 04:33:00,34.0,6.0,-100.00,WSW,253,16.0,22.0,29,0.00,,,-99.99,,2013-03-17 10:33:00,
2013-03-17 04:42:00,35.0,4.0,-100.00,WSW,248,18.0,27.0,26,0.00,,,-99.99,,2013-03-17 10:42:00,
2013-03-17 04:52:00,35.0,4.0,-100.00,WSW,243,19.0,28.0,27,0.00,,,-99.99,,2013-03-17 10:52:00,
2013-03-17 05:02:00,35.0,6.0,-100.00,WSW,247,18.0,26.0,29,0.00,,,-99.99,,2013-03-17 11:02:00,
2013-03-17 05:12:00,35.0,6.0,-100.00,WSW,246,16.0,26.0,29,0.00,,,-99.99,,2013-03-17 11:12:00,
2013-03-17 05:22:00,36.0,8.0,-100.00,SW,236,19.0,27.0,31,0.00,,,-99.99,,2013-03-17 11:22:00,
2013-03-17 05:32:00,36.0,8.0,-100.00,SW,233,20.0,31.0,31,0.00,,,-99.99,,2013-03-17 11:32:00,
2013-03-17 05:42:00,37.0,8.0,-100.00,SW,227,21.0,32.0,30,0.00,,,-99.99,,2013-03-17 11:42:00,
2013-03-17 05:52:00,36.0,9.0,-100.00,SW,229,19.0,26.0,31,0.00,,,-99.99,,2013-03-17 11:52:00,
2013-03-17 06:02:00,36.0,9.0,-100.00,SW,233,17.0,25.0,31,0.00,,,-99.99,,2013-03-17 12:02:00,
2013-03-17 06:12:00,37.0,9.0,-100.00,SW,234,17.0,24.0,31,0.00,,,-99.99,,2013-03-17 12:12:00,
2013-03-17 06:22:00,37.0,9.0,-100.00,SW,233,18.0,26.0,31,0.00,,,-99.99,,2013-03-17 12:22:00,
2013-03-17 06:32:00,37.0,8.0,-100.00,SW,232,19.0,32.0,30,0.00,,,-99.99,,2013-03-17 12:32:00,
2013-03-17 06:42:00,36.0,8.0,-100.00,SW,232,21.0,29.0,31,0.00,,,-99.99,,2013-03-17 12:42:00,
2013-03-17 06:52:00,36.0,8.0,-100.00,SW,232,24.0,30.0,30,0.00,,,-99.99,,2013-03-17 12:52:00,
2013-03-17 07:02:00,36.0,8.0,-100.00,SW,233,24.0,32.0,30,0.00,,,-99.99,,2013-03-17 13:02:00,
2013-03-17 07:12:00,36.0,8.0,-100.00,SW,232,25.0,37.0,31,0.00,,,-99.99,,2013-03-17 13:12:00,
2013-03-17 07:22:00,36.0,9.0,-100.00,WSW,240,21.0,31.0,33,0.00,,,-99.99,,2013-03-17 13:22:00,
2013-03-17 07:32:00,35.0,11.0,-100.00,WSW,250,19.0,34.0,36,0.00,,,-99.99,,2013-03-17 13:32:00,
2013-03-17 07:42:00,33.0,14.0,-100.00,West,272,23.0,40.0,46,0.00,,,-99.99,,2013-03-17 13:42:00,
2013-03-17 07:52:00,32.0,18.0,-100.00,West,267,23.0,34.0,55,0.00,,,-99.99,,2013-03-17 13:52:00,
2013-03-17 08:02:00,31.0,21.0,-100.00,West,265,24.0,37.0,65,0.00,,,-99.99,,2013-03-17 14:02:00,
2013-03-17 08:12:00,30.0,22.0,-100.00,WSW,257,22.0,34.0,71,0.04,,,-99.99,,2013-03-17 14:12:00,
2013-03-17 08:22:00,29.0,24.0,-100.00,WSW,253,18.0,28.0,80,0.03,,,-99.99,,2013-03-17 14:22:00,
2013-03-17 08:32:00,27.0,26.0,-100.00,WSW,246,17.0,27.0,94,0.17,,,-99.99,,2013-03-17 14:32:00,
2013-03-17 08:42:00,29.0,26.0,-100.00,WSW,246,14.0,21.0,88,0.00,,,-99.99,,2013-03-17 14:42:00,
2013-03-17 08:52:00,31.0,25.0,-100.00,WSW,247,17.0,26.0,79,0.00,,,-99.99,,2013-03-17 14:52:00,
2013-03-17 09:02:00,31.0,25.0,-100.00,WSW,247,19.0,30.0,79,0.03,,,-99.99,,2013-03-17 15:02:00,
2013-03-17 09:12:00,31.0,25.0,-100.00,WSW,248,21.0,34.0,77,0.00,,,-99.99,,2013-03-17 15:12:00,
2013-03-17 09:23:00,31.0,26.0,-100.00,WSW,251,24.0,35.0,80,0.01,,,-99.99,,2013-03-17 15:23:00,
2013-03-17 09:33:00,31.0,24.0,-100.00,West,261,27.0,39.0,74,0.00,,,-99.99,,2013-03-17 15:33:00,
2013-03-17 09:42:00,30.0,26.0,-100.00,West,264,29.0,40.0,83,0.01,,,-99.99,,2013-03-17 15:42:00,
2013-03-17 09:52:00,31.0,24.0,-100.00,WSW,253,30.0,43.0,74,0.00,,,-99.99,,2013-03-17 15:52:00,
2013-03-17 10:03:00,32.0,23.0,-100.00,WSW,250,30.0,44.0,68,0.00,,,-99.99,,2013-03-17 16:03:00,
2013-03-17 10:12:00,32.0,22.0,-100.00,WSW,250,31.0,45.0,68,0.00,,,-99.99,,2013-03-17 16:12:00,
2013-03-17 10:22:00,32.0,21.0,-100.00,WSW,253,29.0,43.0,63,0.00,,,-99.99,,2013-03-17 16:22:00,
2013-03-17 10:33:00,33.0,20.0,-100.00,WSW,256,27.0,40.0,61,0.00,,,-99.99,,2013-03-17 16:33:00,
2013-03-17 10:42:00,33.0,20.0,-100.00,WSW,256,27.0,40.0,59,0.00,,,-99.99,,2013-03-17 16:42:00,
2013-03-17 10:52:00,33.0,22.0,-100.00,WSW,254,25.0,44.0,62,0.00,,,-99.99,,2013-03-17 16:52:00,
2013-03-17 11:02:00,33.0,21.0,-100.00,West,260,23.0,37.0,62,0.00,,,-99.99,,2013-03-17 17:02:00,
2013-03-17 11:12:00,31.0,23.0,-100.00,West,263,24.0,37.0,71,0.01,,,-99.99,,2013-03-17 17:12:00,
2013-03-17 11:22:00,31.0,23.0,-100.00,WSW,248,29.0,43.0,73,0.00,,,-99.99,,2013-03-17 17:22:00,
2013-03-17 11:33:00,32.0,23.0,-100.00,WSW,250,26.0,35.0,70,0.00,,,-99.99,,2013-03-17 17:33:00,
2013-03-17 11:42:00,33.0,22.0,-100.00,WSW,254,25.0,39.0,66,0.00,,,-99.99,,2013-03-17 17:42:00,
2013-03-17 11:52:00,33.0,22.0,-100.00,West,268,26.0,42.0,61,0.00,,,-99.99,,2013-03-17 17:52:00,
2013-03-17 12:02:00,34.0,18.0,-100.00,West,267,29.0,43.0,53,0.00,,,-99.99,,2013-03-17 18:02:00,
2013-03-17 12:12:00,34.0,17.0,-100.00,West,264,29.0,44.0,51,0.00,,,-99.99,,2013-03-17 18:12:00,
2013-03-17 12:22:00,33.0,17.0,-100.00,West,278,27.0,42.0,52,0.00,,,-99.99,,2013-03-17 18:22:00,
2013-03-17 12:32:00,33.0,18.0,-100.00,West,277,31.0,43.0,54,0.00,,,-99.99,,2013-03-17 18:32:00,
2013-03-17 12:42:00,33.0,18.0,-100.00,West,277,29.0,43.0,52,0.00,,,-99.99,,2013-03-17 18:42:00,
2013-03-17 12:52:00,34.0,18.0,-100.00,West,277,32.0,45.0,51,0.00,,,-99.99,,2013-03-17 18:52:00,
2013-03-17 13:02:00,34.0,18.0,-100.00,West,280,29.0,40.0,51,0.00,,,-99.99,,2013-03-17 19:02:00,
2013-03-17 13:12:00,33.0,18.0,-100.00,WNW,285,32.0,42.0,52,0.00,,,-99.99,,2013-03-17 19:12:00,
2013-03-17 13:22:00,32.0,16.0,-100.00,West,281,32.0,46.0,51,0.00,,,-99.99,,2013-03-17 19:22:00,
2013-03-17 13:33:00,34.0,16.0,-100.00,West,274,34.0,54.0,47,0.00,,,-99.99,,2013-03-17 19:33:00,
2013-03-17 13:42:00,33.0,18.0,-100.00,West,278,30.0,54.0,53,0.00,,,-99.99,,2013-03-17 19:42:00,
2013-03-17 13:53:00,30.0,22.0,-100.00,WNW,285,29.0,45.0,72,0.01,,,-99.99,,2013-03-17 19:53:00,
2013-03-17 14:02:00,31.0,21.0,-100.00,West,280,32.0,45.0,67,0.00,,,-99.99,,2013-03-17 20:02:00,
2013-03-17 14:12:00,33.0,18.0,-100.00,West,275,32.0,46.0,53,0.00,,,-99.99,,2013-03-17 20:12:00,
2013-03-17 14:22:00,30.0,21.0,-100.00,West,277,35.0,55.0,69,0.00,,,-99.99,,2013-03-17 20:22:00,
2013-03-17 14:32:00,32.0,16.0,-100.00,West,280,35.0,49.0,52,0.00,,,-99.99,,2013-03-17 20:32:00,
2013-03-17 14:42:00,32.0,15.0,-100.00,West,275,38.0,52.0,48,0.00,,,-99.99,,2013-03-17 20:42:00,
2013-03-17 14:52:00,29.0,18.0,-100.00,West,280,39.0,55.0,63,0.01,,,-99.99,,2013-03-17 20:52:00,
2013-03-17 15:02:00,30.0,16.0,-100.00,West,280,36.0,50.0,55,0.00,,,-99.99,,2013-03-17 21:02:00,
2013-03-17 15:12:00,31.0,10.0,-100.00,West,280,36.0,54.0,42,0.00,,,-99.99,,2013-03-17 21:12:00,
2013-03-17 15:22:00,31.0,12.0,-100.00,WNW,287,41.0,57.0,45,0.00,,,-99.99,,2013-03-17 21:22:00,
2013-03-17 15:33:00,31.0,14.0,-100.00,WNW,287,32.0,49.0,50,0.00,,,-99.99,,2013-03-17 21:33:00,
2013-03-17 15:42:00,31.0,13.0,-100.00,WNW,282,34.0,49.0,46,0.00,,,-99.99,,2013-03-17 21:42:00,
2013-03-17 15:52:00,29.0,11.0,-100.00,West,277,39.0,50.0,47,0.00,,,-99.99,,2013-03-17 21:52:00,
2013-03-17 16:03:00,30.0,9.0,-100.00,West,280,37.0,54.0,41,0.00,,,-99.99,,2013-03-17 22:03:00,
2013-03-17 16:12:00,29.0,13.0,-100.00,WNW,288,39.0,56.0,49,0.00,,,-99.99,,2013-03-17 22:12:00,
2013-03-17 16:23:00,29.0,12.0,-100.00,WNW,291,40.0,60.0,49,0.00,,,-99.99,,2013-03-17 22:23:00,
2013-03-17 16:33:00,29.0,13.0,-100.00,WNW,288,41.0,54.0,50,0.00,,,-99.99,,2013-03-17 22:33:00,
2013-03-17 16:42:00,30.0,13.0,-100.00,WNW,288,34.0,49.0,50,0.00,,,-99.99,,2013-03-17 22:42:00,
2013-03-17 16:52:00,30.0,11.0,-100.00,West,281,32.0,50.0,45,0.00,,,-99.99,,2013-03-17 22:52:00,
2013-03-17 17:02:00,29.0,9.0,-100.00,WNW,288,35.0,52.0,42,0.00,,,-99.99,,2013-03-17 23:02:00,
2013-03-17 17:12:00,29.0,10.0,-100.00,WNW,287,34.0,45.0,45,0.00,,,-99.99,,2013-03-17 23:12:00,
2013-03-17 17:22:00,29.0,6.0,-100.00,WNW,285,37.0,51.0,39,0.00,,,-99.99,,2013-03-17 23:22:00,
2013-03-17 17:33:00,28.0,1.0,-100.00,WNW,288,37.0,54.0,30,0.00,,,-99.99,,2013-03-17 23:33:00,
2013-03-17 17:42:00,27.0,7.0,-100.00,WNW,289,42.0,57.0,42,0.00,,,-99.99,,2013-03-17 23:42:00,
2013-03-17 17:52:00,27.0,4.0,-100.00,WNW,288,44.0,58.0,37,0.00,,,-99.99,,2013-03-17 23:52:00,
2013-03-17 18:03:00,27.0,4.0,-100.00,WNW,287,42.0,61.0,37,0.00,,,-99.99,,2013-03-18 00:03:00,
2013-03-17 18:12:00,27.0,4.0,-100.00,WNW,288,39.0,55.0,37,0.00,,,-99.99,,2013-03-18 00:12:00,
2013-03-17 18:22:00,26.0,2.0,-100.00,WNW,285,34.0,48.0,33,0.00,,,-99.99,,2013-03-18 00:22:00,
2013-03-17 18:33:00,25.0,5.0,-100.00,WNW,291,36.0,49.0,41,0.00,,,-99.99,,2013-03-18 00:33:00,
2013-03-17 18:42:00,25.0,1.0,-100.00,WNW,294,37.0,49.0,35,0.00,,,-99.99,,2013-03-18 00:42:00,
2013-03-17 18:52:00,25.0,2.0,-100.00,WNW,284,38.0,50.0,36,0.00,,,-99.99,,2013-03-18 00:52:00,
2013-03-17 19:02:00,24.0,2.0,-100.00,WNW,287,31.0,47.0,37,0.00,,,-99.99,,2013-03-18 01:02:00,
2013-03-17 19:12:00,24.0,2.0,-100.00,WNW,285,33.0,47.0,37,0.00,,,-99.99,,2013-03-18 01:12:00,
2013-03-17 19:22:00,24.0,2.0,-100.00,WNW,282,35.0,49.0,38,0.00,,,-99.99,,2013-03-18 01:22:00,
2013-03-17 19:32:00,23.0,5.0,-100.00,WNW,292,34.0,45.0,46,0.00,,,-99.99,,2013-03-18 01:32:00,
2013-03-17 19:42:00,22.0,6.0,-100.00,WNW,291,32.0,44.0,48,0.00,,,-99.99,,2013-03-18 01:42:00,
2013-03-17 19:52:00,22.0,6.0,-100.00,WNW,294,36.0,49.0,48,0.00,,,-99.99,,2013-03-18 01:52:00,
2013-03-17 20:02:00,22.0,4.0,-100.00,WNW,291,34.0,50.0,47,0.00,,,-99.99,,2013-03-18 02:02:00,
2013-03-17 20:12:00,22.0,4.0,-100.00,WNW,289,29.0,44.0,46,0.00,,,-99.99,,2013-03-18 02:12:00,
2013-03-17 20:22:00,21.0,3.0,-100.00,WNW,288,31.0,43.0,46,0.00,,,-99.99,,2013-03-18 02:22:00,
2013-03-17 20:32:00,21.0,4.0,-100.00,WNW,285,30.0,45.0,48,0.00,,,-99.99,,2013-03-18 02:32:00,
2013-03-17 20:42:00,21.0,5.0,-100.00,WNW,285,29.0,40.0,50,0.00,,,-99.99,,2013-03-18 02:42:00,
2013-03-17 20:52:00,20.0,6.0,-100.00,WNW,288,28.0,41.0,53,0.00,,,-99.99,,2013-03-18 02:52:00,
2013-03-17 21:02:00,20.0,5.0,-100.00,WNW,289,27.0,40.0,51,0.00,,,-99.99,,2013-03-18 03:02:00,
2013-03-17 21:11:00,20.0,7.0,-100.00,WNW,289,28.0,42.0,55,0.00,,,-99.99,,2013-03-18 03:11:00,
2013-03-17 21:22:00,20.0,4.0,-100.00,WNW,287,28.0,40.0,49,0.00,,,-99.99,,2013-03-18 03:22:00,
2013-03-17 21:33:00,20.0,6.0,-100.00,WNW,284,28.0,37.0,54,0.00,,,-99.99,,2013-03-18 03:33:00,
2013-03-17 21:42:00,20.0,8.0,-100.00,WNW,282,24.0,32.0,60,0.00,,,-99.99,,2013-03-18 03:42:00,
2013-03-17 21:52:00,20.0,7.0,-100.00,West,281,27.0,39.0,58,0.00,,,-99.99,,2013-03-18 03:52:00,
2013-03-17 22:03:00,20.0,6.0,-100.00,West,278,26.0,40.0,56,0.00,,,-99.99,,2013-03-18 04:03:00,
2013-03-17 22:13:00,20.0,7.0,-100.00,West,280,26.0,37.0,58,0.00,,,-99.99,,2013-03-18 04:13:00,
2013-03-17 22:22:00,20.0,7.0,-100.00,West,280,26.0,40.0,58,0.00,,,-99.99,,2013-03-18 04:22:00,
2013-03-17 22:33:00,20.0,7.0,-100.00,WNW,284,26.0,35.0,58,0.00,,,-99.99,,2013-03-18 04:33:00,
2013-03-17 22:42:00,19.0,7.0,-100.00,WNW,288,26.0,37.0,59,0.00,,,-99.99,,2013-03-18 04:42:00,
2013-03-17 22:52:00,19.0,6.0,-100.00,WNW,284,27.0,40.0,57,0.00,,,-99.99,,2013-03-18 04:52:00,
2013-03-17 23:02:00,19.0,5.0,-100.00,WNW,284,26.0,37.0,53,0.00,,,-99.99,,2013-03-18 05:02:00,
2013-03-17 23:12:00,19.0,6.0,-100.00,WNW,285,24.0,35.0,55,0.00,,,-99.99,,2013-03-18 05:12:00,
2013-03-17 23:22:00,19.0,6.0,-100.00,West,278,21.0,30.0,57,0.00,,,-99.99,,2013-03-18 05:22:00,
2013-03-17 23:32:00,18.0,6.0,-100.00,West,274,24.0,34.0,58,0.00,,,-99.99,,2013-03-18 05:32:00,
2013-03-17 23:43:00,18.0,6.0,-100.00,West,275,24.0,32.0,58,0.00,,,-99.99,,2013-03-18 05:43:00,
2013-03-17 23:52:00,18.0,6.0,-100.00,West,274,20.0,32.0,59,0.00,,,-99.99,,2013-03-18 05:52:00,